Philadelphia, Pennsylvania
Traffic Map
Current Weather Conditions
Philadelphia, Pennsylvania
Clear
Clear
74°
Feels Like: 74°
Wind Chill: 74° Ceiling: Unl
Heat Index: 74° Visibility: 10mi
Dew Point: 64° Wind: 7mph
Humidity: 71% Direction: 360° (N)
Pressure: 30.14in Gusts: 0mph
Raw Report DataKPHL 270954Z 36006KT 10SM CLR 23/18 A3014 RMK AO2 SLP205 T02330178 $
Traffic Incident Summary
Active as of:
Severity:
Category:
InformationThere was an issue retrieving the traffic information for this location. Please try a different location or try again shortly.
Advertisements
Track Severe Weather on mobile